Terminal Aerodrome Forecast
Issued by NWS

Home | Current Version | Previous Version | Text Only | Print | Product List | Glossary On
Versions: 1 2 3 4 5 6 7 8 9 10 11 12 13 14
000
FTUS46 KMTR 271700
TAFSJC
TAF
KSJC 271731Z 2718/2818 10007KT P6SM FEW040 OVC100
     FM272300 30007KT P6SM BKN100
     FM280300 20005KT P6SM BKN200
     FM280800 00000KT P6SM FEW200
     FM281300 11006KT P6SM FEW200=

USA.gov is the U.S. government's official web portal to all federal, state and local government web resources and services.